Hauptseite
METAR-TAF:

METAR-TAF

Flughäfen :

Flughafen Stuttgart

Stuttgart, Deutschland

Breite: 48-41N, Länge: 009-13E, Höhe: 396 m

Beobachtung

Neuester Wetterbericht von vor 8 Minuten, um 16:50 UTC
Wind 3 kt aus unterschiedlichen Richtungen
Temperatur 24°C
Luftfeuchtigkeit 47%
Luftdruck 1020 hPa
Sichtweite 10 km oder mehr
keine Wolken unter 1500 m und keine Kumulonimbus oder Gewitterwolken

METAR: EDDS 151650Z VRB03KT CAVOK 24/12 Q1020 NOSIG

Zeit: 18:58 (16:58 UTC)

Prognose

Neuester Wetterbericht von vor 5 Stunden und 58 Minuten, um 11:00 UTC
Gültige Prognose vom 15 um 12 UTC bis 16 um 12 UTC
Wind 7 kt aus Nordwest
Sichtweite 10 km oder mehr
Aufgelockert bewölkt in der Höhe von 4500 ft
Übergehend zu
vom 15 um 18 UTC bis 15 um 20 UTC
Wind 3 kt aus unterschiedlichen Richtungen

TAF: EDDS 151100Z 1512/1612 32007KT 9999 SCT045 BECMG 1518/1520 VRB03KT

Wetterbeobachtungen und Prognosen von mehr als 4000 Flughäfen (METAR und TAF Bericht).

Die verfügbaren Stationen werden durch gelbe und rote Markierungen auf der Karte dargestellt.

Führen Sie die Maus auf sie, um den Namen der Station zu sehen.

Darauf klicken, um die Beobachtung von Wetterbeobachtungen und Prognosen zu sehen.

Um die Karte zu ändern : klicken Sie auf den grünen Tasten mit einem schwarzen Kreuz Zum Vergrößern, auf den grünen Button mit einem Gedankenstrich zu verkleinern, oder auf die grünen Pfeile für benachbarte Karten.


METAR-TAF: